Avoca, Texas
Current Conditions -  °F | °C
As of 7:52 AM on Sunday 25 Jan 2015 (Local Time) from KABI Reporting Station
Clear Clear  
Wind Chill: 33°   Ceiling: Unl
Heat Index: 39°   Visibility: 10mi
Dew Point: 31°   Wind: 9mph
Humidity: 73%   Direction: 310°NW
Pressure: 30.13"   Gusts: NA
Location:  32.87°N, 99.72°W
Report Text: KABI 251352Z 31008KT 10SM CLR 04/M01 A3013 RMK AO2 SLP201 T00391006
Loading
Personal Weather Stations






























Interactive Weather Map New forecast layout! Learn more

10-Day Weather Forecast

Advertisements
Track Severe Weather on mobile